sensor_id;sensor_type;location;lat;lon;timestamp;pressure;altitude;pressure_sealevel;temperature;humidity
46710;BME280;32442;51.514;-0.178;2023-02-01T00:01:16;102241.25;;;21.95;37.21
46710;BME280;32442;51.514;-0.178;2023-02-01T00:03:44;102245.22;;;21.94;37.25
46710;BME280;32442;51.514;-0.178;2023-02-01T00:06:11;102251.97;;;21.93;37.44
46710;BME280;32442;51.514;-0.178;2023-02-01T00:08:38;102255.63;;;21.88;37.67
46710;BME280;32442;51.514;-0.178;2023-02-01T00:11:07;102268.00;;;21.87;37.56
46710;BME280;32442;51.514;-0.178;2023-02-01T00:13:35;102260.13;;;21.84;37.95
46710;BME280;32442;51.514;-0.178;2023-02-01T00:16:06;102255.91;;;21.82;38.25
46710;BME280;32442;51.514;-0.178;2023-02-01T00:18:35;102250.56;;;21.80;38.54
46710;BME280;32442;51.514;-0.178;2023-02-01T00:21:03;102253.09;;;21.77;38.73
46710;BME280;32442;51.514;-0.178;2023-02-01T00:23:31;102261.84;;;21.75;38.51
46710;BME280;32442;51.514;-0.178;2023-02-01T00:28:29;102248.31;;;21.72;38.75
46710;BME280;32442;51.514;-0.178;2023-02-01T00:30:57;102240.72;;;21.72;39.23
46710;BME280;32442;51.514;-0.178;2023-02-01T00:33:25;102237.91;;;21.72;39.18
46710;BME280;32442;51.514;-0.178;2023-02-01T00:38:24;102217.13;;;21.68;39.23
46710;BME280;32442;51.514;-0.178;2023-02-01T00:40:51;102207.28;;;21.66;39.46
46710;BME280;32442;51.514;-0.178;2023-02-01T00:43:18;102217.69;;;21.65;39.68
46710;BME280;32442;51.514;-0.178;2023-02-01T00:45:46;102211.50;;;21.63;39.72
46710;BME280;32442;51.514;-0.178;2023-02-01T00:48:13;102212.91;;;21.61;39.21
46710;BME280;32442;51.514;-0.178;2023-02-01T00:50:41;102209.53;;;21.59;39.52
46710;BME280;32442;51.514;-0.178;2023-02-01T00:53:09;102200.00;;;21.55;39.26
46710;BME280;32442;51.514;-0.178;2023-02-01T00:55:36;102199.44;;;21.53;39.37
46710;BME280;32442;51.514;-0.178;2023-02-01T00:58:04;102194.63;;;21.53;39.65
46710;BME280;32442;51.514;-0.178;2023-02-01T01:00:33;102202.53;;;21.51;39.82
46710;BME280;32442;51.514;-0.178;2023-02-01T01:03:01;102201.13;;;21.49;39.76
46710;BME280;32442;51.514;-0.178;2023-02-01T01:05:28;102212.09;;;21.45;39.41
46710;BME280;32442;51.514;-0.178;2023-02-01T01:07:55;102213.53;;;21.43;39.47
46710;BME280;32442;51.514;-0.178;2023-02-01T01:10:22;102199.47;;;21.43;39.66
46710;BME280;32442;51.514;-0.178;2023-02-01T01:12:49;102199.47;;;21.38;39.38
46710;BME280;32442;51.514;-0.178;2023-02-01T01:15:18;102192.16;;;21.37;39.15
46710;BME280;32442;51.514;-0.178;2023-02-01T01:17:45;102194.69;;;21.33;39.25
46710;BME280;32442;51.514;-0.178;2023-02-01T01:20:14;102201.16;;;21.34;39.27
46710;BME280;32442;51.514;-0.178;2023-02-01T01:22:41;102202.88;;;21.29;39.11
46710;BME280;32442;51.514;-0.178;2023-02-01T01:25:08;102198.63;;;21.27;39.54
46710;BME280;32442;51.514;-0.178;2023-02-01T01:27:35;102187.69;;;21.20;39.46
46710;BME280;32442;51.514;-0.178;2023-02-01T01:30:03;102173.34;;;21.22;39.38
46710;BME280;32442;51.514;-0.178;2023-02-01T01:32:31;102175.88;;;21.18;39.40
46710;BME280;32442;51.514;-0.178;2023-02-01T01:34:58;102177.31;;;21.16;38.98
46710;BME280;32442;51.514;-0.178;2023-02-01T01:37:26;102177.84;;;21.13;38.83
46710;BME280;32442;51.514;-0.178;2023-02-01T01:39:53;102178.38;;;21.10;39.28
46710;BME280;32442;51.514;-0.178;2023-02-01T01:42:23;102172.19;;;21.08;39.18
46710;BME280;32442;51.514;-0.178;2023-02-01T01:47:25;102175.03;;;21.03;38.93
46710;BME280;32442;51.514;-0.178;2023-02-01T01:49:59;102180.66;;;21.03;39.38
46710;BME280;32442;51.514;-0.178;2023-02-01T01:52:26;102178.69;;;20.98;39.03
46710;BME280;32442;51.514;-0.178;2023-02-01T01:54:54;102159.28;;;20.92;38.99
46710;BME280;32442;51.514;-0.178;2023-02-01T01:57:23;102173.06;;;20.93;39.31
46710;BME280;32442;51.514;-0.178;2023-02-01T01:59:56;102171.66;;;20.91;39.00
46710;BME280;32442;51.514;-0.178;2023-02-01T02:02:25;102175.88;;;20.88;39.25
46710;BME280;32442;51.514;-0.178;2023-02-01T02:04:53;102162.94;;;20.87;39.08
46710;BME280;32442;51.514;-0.178;2023-02-01T02:07:22;102167.72;;;20.86;39.42
46710;BME280;32442;51.514;-0.178;2023-02-01T02:09:51;102177.25;;;20.80;39.58
46710;BME280;32442;51.514;-0.178;2023-02-01T02:12:26;102171.38;;;20.82;39.50
46710;BME280;32442;51.514;-0.178;2023-02-01T02:14:54;102172.22;;;20.77;39.19
46710;BME280;32442;51.514;-0.178;2023-02-01T02:52:57;102140.19;;;20.48;40.27
46710;BME280;32442;51.514;-0.178;2023-02-01T02:55:29;102134.56;;;20.48;40.01
46710;BME280;32442;51.514;-0.178;2023-02-01T02:57:58;102139.34;;;20.48;40.16
46710;BME280;32442;51.514;-0.178;2023-02-01T03:00:29;102132.88;;;20.47;39.89
46710;BME280;32442;51.514;-0.178;2023-02-01T03:03:02;102140.19;;;20.43;40.12
46710;BME280;32442;51.514;-0.178;2023-02-01T03:05:35;102137.91;;;20.40;39.95
46710;BME280;32442;51.514;-0.178;2023-02-01T03:08:08;102142.13;;;20.37;40.18
46710;BME280;32442;51.514;-0.178;2023-02-01T03:13:11;102139.31;;;20.32;39.83
46710;BME280;32442;51.514;-0.178;2023-02-01T03:18:12;102129.75;;;20.28;39.84
46710;BME280;32442;51.514;-0.178;2023-02-01T03:20:40;102122.72;;;20.26;40.31
46710;BME280;32442;51.514;-0.178;2023-02-01T03:23:09;102125.25;;;20.27;40.07
46710;BME280;32442;51.514;-0.178;2023-02-01T03:25:38;102130.84;;;20.22;40.10
46710;BME280;32442;51.514;-0.178;2023-02-01T03:28:07;102127.47;;;20.20;39.85
46710;BME280;32442;51.514;-0.178;2023-02-01T03:30:36;102126.91;;;20.18;40.07
46710;BME280;32442;51.514;-0.178;2023-02-01T03:33:06;102133.09;;;20.15;40.28
46710;BME280;32442;51.514;-0.178;2023-02-01T03:40:39;102136.69;;;20.06;40.10
46710;BME280;32442;51.514;-0.178;2023-02-01T03:43:09;102138.66;;;20.05;39.88
46710;BME280;32442;51.514;-0.178;2023-02-01T03:45:41;102148.19;;;20.04;40.24
46710;BME280;32442;51.514;-0.178;2023-02-01T03:48:10;102146.53;;;20.03;39.92
46710;BME280;32442;51.514;-0.178;2023-02-01T03:50:43;102157.44;;;20.05;40.07
46710;BME280;32442;51.514;-0.178;2023-02-01T03:53:13;102149.00;;;19.99;40.30
46710;BME280;32442;51.514;-0.178;2023-02-01T03:55:43;102150.97;;;19.94;40.03
46710;BME280;32442;51.514;-0.178;2023-02-01T04:00:39;102154.06;;;19.92;40.28
46710;BME280;32442;51.514;-0.178;2023-02-01T04:03:07;102145.06;;;19.90;40.14
46710;BME280;32442;51.514;-0.178;2023-02-01T04:05:34;102149.00;;;19.89;40.25
46710;BME280;32442;51.514;-0.178;2023-02-01T04:08:02;102149.00;;;19.89;40.35
46710;BME280;32442;51.514;-0.178;2023-02-01T04:10:29;102138.31;;;19.86;40.32
46710;BME280;32442;51.514;-0.178;2023-02-01T04:12:56;102134.13;;;19.84;40.34
46710;BME280;32442;51.514;-0.178;2023-02-01T04:15:25;102126.22;;;19.81;39.99
46710;BME280;32442;51.514;-0.178;2023-02-01T04:17:52;102121.47;;;19.81;39.90
46710;BME280;32442;51.514;-0.178;2023-02-01T04:20:19;102130.44;;;19.78;40.25
46710;BME280;32442;51.514;-0.178;2023-02-01T04:22:47;102120.34;;;19.77;40.24
46710;BME280;32442;51.514;-0.178;2023-02-01T04:25:14;102132.66;;;19.76;40.30
46710;BME280;32442;51.514;-0.178;2023-02-01T04:27:44;102125.38;;;19.75;40.06
46710;BME280;32442;51.514;-0.178;2023-02-01T04:30:12;102125.38;;;19.70;40.50
46710;BME280;32442;51.514;-0.178;2023-02-01T04:32:39;102135.72;;;19.70;40.43
46710;BME280;32442;51.514;-0.178;2023-02-01T04:35:07;102136.00;;;19.68;40.28
46710;BME280;32442;51.514;-0.178;2023-02-01T04:37:35;102138.81;;;19.68;40.31
46710;BME280;32442;51.514;-0.178;2023-02-01T04:40:02;102145.50;;;19.67;40.36
46710;BME280;32442;51.514;-0.178;2023-02-01T04:42:30;102124.50;;;19.65;40.51
46710;BME280;32442;51.514;-0.178;2023-02-01T04:44:57;102127.56;;;19.63;40.54
46710;BME280;32442;51.514;-0.178;2023-02-01T04:47:25;102120.56;;;19.61;40.78
46710;BME280;32442;51.514;-0.178;2023-02-01T04:49:52;102126.44;;;19.59;40.48
46710;BME280;32442;51.514;-0.178;2023-02-01T04:52:20;102132.88;;;19.60;40.58
46710;BME280;32442;51.514;-0.178;2023-02-01T04:54:48;102138.19;;;19.56;40.78
46710;BME280;32442;51.514;-0.178;2023-02-01T04:57:15;102124.44;;;19.54;40.94
46710;BME280;32442;51.514;-0.178;2023-02-01T04:59:42;102132.28;;;19.52;40.96
46710;BME280;32442;51.514;-0.178;2023-02-01T05:02:09;102140.72;;;19.52;41.27
46710;BME280;32442;51.514;-0.178;2023-02-01T05:04:37;102151.63;;;19.54;41.07
46710;BME280;32442;51.514;-0.178;2023-02-01T05:07:04;102142.38;;;19.53;40.89
46710;BME280;32442;51.514;-0.178;2023-02-01T05:09:31;102149.97;;;19.53;40.92
46710;BME280;32442;51.514;-0.178;2023-02-01T05:11:59;102150.50;;;19.50;41.17
46710;BME280;32442;51.514;-0.178;2023-02-01T05:14:29;102140.38;;;19.49;40.90
46710;BME280;32442;51.514;-0.178;2023-02-01T05:16:57;102149.94;;;19.48;41.08
46710;BME280;32442;51.514;-0.178;2023-02-01T05:19:25;102153.84;;;19.47;41.11
46710;BME280;32442;51.514;-0.178;2023-02-01T05:21:52;102147.97;;;19.48;41.21
46710;BME280;32442;51.514;-0.178;2023-02-01T05:24:19;102154.97;;;19.51;41.24
46710;BME280;32442;51.514;-0.178;2023-02-01T05:26:47;102145.47;;;19.52;41.24
46710;BME280;32442;51.514;-0.178;2023-02-01T05:29:16;102145.75;;;19.56;41.34
46710;BME280;32442;51.514;-0.178;2023-02-01T05:31:44;102150.53;;;19.60;41.41
46710;BME280;32442;51.514;-0.178;2023-02-01T05:34:13;102149.75;;;19.70;41.07
46710;BME280;32442;51.514;-0.178;2023-02-01T05:36:40;102149.19;;;19.73;41.40
46710;BME280;32442;51.514;-0.178;2023-02-01T05:39:07;102151.75;;;19.79;40.87
46710;BME280;32442;51.514;-0.178;2023-02-01T05:41:35;102149.81;;;19.85;40.91
46710;BME280;32442;51.514;-0.178;2023-02-01T05:44:03;102141.41;;;19.90;40.81
46710;BME280;32442;51.514;-0.178;2023-02-01T05:46:30;102145.06;;;19.95;41.05
46710;BME280;32442;51.514;-0.178;2023-02-01T05:48:57;102135.84;;;20.00;41.14
46710;BME280;32442;51.514;-0.178;2023-02-01T05:51:24;102139.50;;;20.06;41.01
46710;BME280;32442;51.514;-0.178;2023-02-01T05:53:51;102138.69;;;20.10;40.90
46710;BME280;32442;51.514;-0.178;2023-02-01T05:56:19;102131.13;;;20.16;40.88
46710;BME280;32442;51.514;-0.178;2023-02-01T05:58:46;102138.72;;;20.20;40.47
46710;BME280;32442;51.514;-0.178;2023-02-01T06:01:13;102132.25;;;20.25;40.44
46710;BME280;32442;51.514;-0.178;2023-02-01T06:03:41;102136.78;;;20.31;40.09
46710;BME280;32442;51.514;-0.178;2023-02-01T06:06:08;102132.03;;;20.36;40.29
46710;BME280;32442;51.514;-0.178;2023-02-01T06:08:36;102132.03;;;20.41;40.24
46710;BME280;32442;51.514;-0.178;2023-02-01T06:11:04;102133.16;;;20.46;39.90
46710;BME280;32442;51.514;-0.178;2023-02-01T06:13:32;102129.50;;;20.50;40.16
46710;BME280;32442;51.514;-0.178;2023-02-01T06:16:01;102129.50;;;20.55;39.75
46710;BME280;32442;51.514;-0.178;2023-02-01T06:18:29;102131.22;;;20.61;39.94
46710;BME280;32442;51.514;-0.178;2023-02-01T06:20:58;102132.34;;;20.65;40.08
46710;BME280;32442;51.514;-0.178;2023-02-01T06:23:28;102137.13;;;20.70;39.85
46710;BME280;32442;51.514;-0.178;2023-02-01T06:25:58;102139.06;;;20.74;39.54
46710;BME280;32442;51.514;-0.178;2023-02-01T06:28:26;102135.44;;;20.79;39.85
46710;BME280;32442;51.514;-0.178;2023-02-01T06:30:54;102134.59;;;20.83;39.68
46710;BME280;32442;51.514;-0.178;2023-02-01T06:33:22;102125.59;;;20.86;39.01
46710;BME280;32442;51.514;-0.178;2023-02-01T06:35:49;102130.34;;;20.91;39.20
46710;BME280;32442;51.514;-0.178;2023-02-01T06:38:23;102126.44;;;20.92;39.06
46710;BME280;32442;51.514;-0.178;2023-02-01T06:40:52;102120.22;;;20.95;38.82
46710;BME280;32442;51.514;-0.178;2023-02-01T06:43:21;102127.81;;;21.00;38.68
46710;BME280;32442;51.514;-0.178;2023-02-01T06:45:49;102129.22;;;21.02;38.79
46710;BME280;32442;51.514;-0.178;2023-02-01T06:48:18;102133.69;;;21.03;38.36
46710;BME280;32442;51.514;-0.178;2023-02-01T06:50:46;102118.25;;;21.06;38.24
46710;BME280;32442;51.514;-0.178;2023-02-01T06:53:13;102116.28;;;21.06;38.28
46710;BME280;32442;51.514;-0.178;2023-02-01T06:55:41;102116.84;;;21.08;38.03
46710;BME280;32442;51.514;-0.178;2023-02-01T07:03:33;102127.81;;;21.10;38.12
46710;BME280;32442;51.514;-0.178;2023-02-01T07:06:09;102145.78;;;21.09;38.06
46710;BME280;32442;51.514;-0.178;2023-02-01T07:08:39;102158.72;;;21.10;38.47
46710;BME280;32442;51.514;-0.178;2023-02-01T07:11:12;102156.19;;;21.08;38.45
46710;BME280;32442;51.514;-0.178;2023-02-01T07:13:44;102161.53;;;21.10;38.21
46710;BME280;32442;51.514;-0.178;2023-02-01T07:16:17;102161.25;;;21.06;38.76
46710;BME280;32442;51.514;-0.178;2023-02-01T07:18:47;102159.56;;;21.05;39.23
46710;BME280;32442;51.514;-0.178;2023-02-01T07:21:19;102163.22;;;21.06;38.82
46710;BME280;32442;51.514;-0.178;2023-02-01T07:23:50;102160.41;;;21.06;38.32
46710;BME280;32442;51.514;-0.178;2023-02-01T07:26:19;102163.50;;;21.04;38.28
46710;BME280;32442;51.514;-0.178;2023-02-01T07:28:50;102162.66;;;21.04;38.33
46710;BME280;32442;51.514;-0.178;2023-02-01T07:31:19;102172.19;;;21.08;37.93
46710;BME280;32442;51.514;-0.178;2023-02-01T07:33:53;102184.59;;;21.12;37.97
46710;BME280;32442;51.514;-0.178;2023-02-01T07:36:21;102189.66;;;21.15;37.78
46710;BME280;32442;51.514;-0.178;2023-02-01T07:38:48;102189.94;;;21.18;37.71
46710;BME280;32442;51.514;-0.178;2023-02-01T07:41:15;102187.69;;;21.20;37.93
46710;BME280;32442;51.514;-0.178;2023-02-01T07:43:42;102187.38;;;21.22;37.80
46710;BME280;32442;51.514;-0.178;2023-02-01T07:46:10;102192.47;;;21.25;37.96
46710;BME280;32442;51.514;-0.178;2023-02-01T07:48:37;102194.69;;;21.28;37.69
46710;BME280;32442;51.514;-0.178;2023-02-01T07:53:32;102209.34;;;21.25;38.63
46710;BME280;32442;51.514;-0.178;2023-02-01T07:56:00;102197.16;;;20.54;34.04
46710;BME280;32442;51.514;-0.178;2023-02-01T07:58:27;102194.69;;;20.77;34.75
46710;BME280;32442;51.514;-0.178;2023-02-01T08:00:55;102186.84;;;20.84;35.13
46710;BME280;32442;51.514;-0.178;2023-02-01T08:03:28;102190.78;;;20.89;34.67
46710;BME280;32442;51.514;-0.178;2023-02-01T08:05:55;102196.38;;;20.89;34.69
46710;BME280;32442;51.514;-0.178;2023-02-01T08:08:23;102198.91;;;20.90;34.90
46710;BME280;32442;51.514;-0.178;2023-02-01T08:10:50;102190.78;;;20.89;34.85
46710;BME280;32442;51.514;-0.178;2023-02-01T08:13:18;102197.50;;;20.88;34.93
46710;BME280;32442;51.514;-0.178;2023-02-01T08:15:45;102198.63;;;20.86;35.29
46710;BME280;32442;51.514;-0.178;2023-02-01T08:18:12;102196.09;;;20.85;35.30
46710;BME280;32442;51.514;-0.178;2023-02-01T08:20:43;102192.72;;;20.83;35.40
46710;BME280;32442;51.514;-0.178;2023-02-01T08:23:12;102196.66;;;20.82;35.13
46710;BME280;32442;51.514;-0.178;2023-02-01T08:25:39;102194.97;;;20.81;35.50
46710;BME280;32442;51.514;-0.178;2023-02-01T08:28:06;102196.38;;;20.78;35.33
46710;BME280;32442;51.514;-0.178;2023-02-01T08:30:35;102192.72;;;20.83;35.26
46710;BME280;32442;51.514;-0.178;2023-02-01T08:33:05;102188.50;;;20.85;35.79
46710;BME280;32442;51.514;-0.178;2023-02-01T08:35:34;102193.00;;;20.86;35.72
46710;BME280;32442;51.514;-0.178;2023-02-01T08:38:09;102183.72;;;20.86;35.94
46710;BME280;32442;51.514;-0.178;2023-02-01T08:40:36;102179.78;;;20.77;36.35
46710;BME280;32442;51.514;-0.178;2023-02-01T08:43:03;102173.63;;;20.75;35.73
46710;BME280;32442;51.514;-0.178;2023-02-01T08:45:31;102177.81;;;20.72;35.49
46710;BME280;32442;51.514;-0.178;2023-02-01T08:47:58;102177.81;;;20.72;35.51
46710;BME280;32442;51.514;-0.178;2023-02-01T08:50:25;102180.09;;;20.70;35.65
46710;BME280;32442;51.514;-0.178;2023-02-01T08:52:53;102179.50;;;20.68;35.68
46710;BME280;32442;51.514;-0.178;2023-02-01T08:55:20;102185.13;;;20.68;35.57
46710;BME280;32442;51.514;-0.178;2023-02-01T08:57:47;102184.00;;;20.69;35.56
46710;BME280;32442;51.514;-0.178;2023-02-01T09:00:15;102191.31;;;20.65;35.56
46710;BME280;32442;51.514;-0.178;2023-02-01T09:02:43;102187.94;;;20.63;35.42
46710;BME280;32442;51.514;-0.178;2023-02-01T09:05:10;102183.44;;;20.57;35.57
46710;BME280;32442;51.514;-0.178;2023-02-01T09:07:38;102189.06;;;20.52;35.64
46710;BME280;32442;51.514;-0.178;2023-02-01T09:10:05;102183.44;;;20.52;35.40
46710;BME280;32442;51.514;-0.178;2023-02-01T09:12:33;102182.84;;;20.50;35.51
46710;BME280;32442;51.514;-0.178;2023-02-01T09:15:01;102185.13;;;20.48;35.46
46710;BME280;32442;51.514;-0.178;2023-02-01T09:17:29;102177.81;;;20.47;35.36
46710;BME280;32442;51.514;-0.178;2023-02-01T09:19:56;102184.81;;;20.45;35.17
46710;BME280;32442;51.514;-0.178;2023-02-01T09:22:23;102187.31;;;20.36;35.21
46710;BME280;32442;51.514;-0.178;2023-02-01T09:24:51;102193.75;;;20.31;35.71
46710;BME280;32442;51.514;-0.178;2023-02-01T09:27:20;102186.13;;;20.27;35.56
46710;BME280;32442;51.514;-0.178;2023-02-01T09:29:47;102188.44;;;20.30;35.77
46710;BME280;32442;51.514;-0.178;2023-02-01T09:32:20;102194.00;;;20.25;35.34
46710;BME280;32442;51.514;-0.178;2023-02-01T09:34:48;102192.88;;;20.26;35.58
46710;BME280;32442;51.514;-0.178;2023-02-01T09:37:15;102197.91;;;20.19;35.35
46710;BME280;32442;51.514;-0.178;2023-02-01T09:39:42;102203.50;;;20.14;35.57
46710;BME280;32442;51.514;-0.178;2023-02-01T09:44:44;102204.88;;;20.06;35.70
46710;BME280;32442;51.514;-0.178;2023-02-01T09:47:16;102195.59;;;20.01;35.59
46710;BME280;32442;51.514;-0.178;2023-02-01T09:49:47;102205.97;;;20.00;35.88
46710;BME280;32442;51.514;-0.178;2023-02-01T09:52:15;102212.97;;;19.92;35.71
46710;BME280;32442;51.514;-0.178;2023-02-01T09:57:15;102203.94;;;19.85;35.63
46710;BME280;32442;51.514;-0.178;2023-02-01T09:59:46;102215.72;;;19.82;36.01
46710;BME280;32442;51.514;-0.178;2023-02-01T10:04:43;102209.81;;;19.79;35.88
46710;BME280;32442;51.514;-0.178;2023-02-01T10:07:13;102211.50;;;19.80;35.85
46710;BME280;32442;51.514;-0.178;2023-02-01T10:14:46;102213.66;;;19.68;36.23
46710;BME280;32442;51.514;-0.178;2023-02-01T10:17:22;102210.00;;;19.67;36.39
46710;BME280;32442;51.514;-0.178;2023-02-01T10:27:41;102216.16;;;19.64;36.47
46710;BME280;32442;51.514;-0.178;2023-02-01T10:30:15;102196.25;;;19.61;36.58
46710;BME280;32442;51.514;-0.178;2023-02-01T10:32:42;102204.91;;;19.59;36.20
46710;BME280;32442;51.514;-0.178;2023-02-01T10:35:12;102211.94;;;19.57;36.28
46710;BME280;32442;51.514;-0.178;2023-02-01T10:37:40;102214.16;;;19.54;36.42
46710;BME280;32442;51.514;-0.178;2023-02-01T10:40:15;102206.84;;;19.53;36.21
46710;BME280;32442;51.514;-0.178;2023-02-01T10:42:43;102216.09;;;19.54;36.20
46710;BME280;32442;51.514;-0.178;2023-02-01T10:45:13;102224.47;;;19.49;36.45
46710;BME280;32442;51.514;-0.178;2023-02-01T10:47:41;102226.47;;;19.48;35.95
46710;BME280;32442;51.514;-0.178;2023-02-01T10:55:25;102238.47;;;19.44;36.21
46710;BME280;32442;51.514;-0.178;2023-02-01T11:00:23;102244.88;;;19.39;36.04
46710;BME280;32442;51.514;-0.178;2023-02-01T11:02:51;102233.31;;;19.36;36.32
46710;BME280;32442;51.514;-0.178;2023-02-01T11:05:18;102227.72;;;19.36;36.45
46710;BME280;32442;51.514;-0.178;2023-02-01T11:07:46;102239.47;;;19.33;36.46
46710;BME280;32442;51.514;-0.178;2023-02-01T11:12:45;102223.50;;;19.33;36.23
46710;BME280;32442;51.514;-0.178;2023-02-01T11:15:20;102224.31;;;19.29;36.48
46710;BME280;32442;51.514;-0.178;2023-02-01T11:17:49;102215.31;;;19.27;36.60
46710;BME280;32442;51.514;-0.178;2023-02-01T11:20:21;102220.06;;;19.26;36.26
46710;BME280;32442;51.514;-0.178;2023-02-01T11:25:21;102218.94;;;19.22;36.58
46710;BME280;32442;51.514;-0.178;2023-02-01T11:27:50;102226.47;;;19.22;36.59
46710;BME280;32442;51.514;-0.178;2023-02-01T11:32:51;102211.38;;;19.23;36.64
46710;BME280;32442;51.514;-0.178;2023-02-01T11:35:18;102212.78;;;19.20;36.64
46710;BME280;32442;51.514;-0.178;2023-02-01T11:37:50;102204.38;;;19.20;36.66
46710;BME280;32442;51.514;-0.178;2023-02-01T11:47:51;102197.63;;;19.16;36.72
46710;BME280;32442;51.514;-0.178;2023-02-01T11:50:22;102214.94;;;19.13;36.65
46710;BME280;32442;51.514;-0.178;2023-02-01T11:52:57;102196.72;;;19.10;36.63
46710;BME280;32442;51.514;-0.178;2023-02-01T12:02:57;102208.44;;;19.02;36.80
46710;BME280;32442;51.514;-0.178;2023-02-01T12:15:31;102196.59;;;18.95;36.83
46710;BME280;32442;51.514;-0.178;2023-02-01T12:38:03;102182.78;;;18.84;37.14
46710;BME280;32442;51.514;-0.178;2023-02-01T12:45:33;102171.00;;;18.82;37.52
46710;BME280;32442;51.514;-0.178;2023-02-01T12:48:11;102193.13;;;18.83;37.41
46710;BME280;32442;51.514;-0.178;2023-02-01T12:50:44;102168.47;;;18.80;37.11
46710;BME280;32442;51.514;-0.178;2023-02-01T12:55:48;102166.50;;;18.81;37.30
46710;BME280;32442;51.514;-0.178;2023-02-01T12:58:18;102168.19;;;18.82;37.39
46710;BME280;32442;51.514;-0.178;2023-02-01T13:00:50;102178.53;;;18.81;37.60
46710;BME280;32442;51.514;-0.178;2023-02-01T13:08:21;102164.84;;;18.80;37.44
46710;BME280;32442;51.514;-0.178;2023-02-01T13:10:54;102166.81;;;18.84;37.27
46710;BME280;32442;51.514;-0.178;2023-02-01T13:13:29;102166.59;;;18.91;37.31
46710;BME280;32442;51.514;-0.178;2023-02-01T13:18:32;102169.50;;;19.06;37.37
46710;BME280;32442;51.514;-0.178;2023-02-01T13:23:34;102170.44;;;19.17;37.26
46710;BME280;32442;51.514;-0.178;2023-02-01T13:26:04;102160.09;;;19.22;36.98
46710;BME280;32442;51.514;-0.178;2023-02-01T13:28:36;102160.41;;;19.26;37.12
46710;BME280;32442;51.514;-0.178;2023-02-01T13:43:59;102158.06;;;19.54;36.72
46710;BME280;32442;51.514;-0.178;2023-02-01T13:46:27;102158.38;;;19.58;36.93
46710;BME280;32442;51.514;-0.178;2023-02-01T13:48:55;102157.56;;;19.63;36.64
46710;BME280;32442;51.514;-0.178;2023-02-01T13:53:54;102165.19;;;19.72;36.64
46710;BME280;32442;51.514;-0.178;2023-02-01T13:56:22;102163.50;;;19.76;36.71
46710;BME280;32442;51.514;-0.178;2023-02-01T13:58:50;102164.69;;;19.80;36.62
46710;BME280;32442;51.514;-0.178;2023-02-01T14:09:09;102146.50;;;19.98;36.59
46710;BME280;32442;51.514;-0.178;2023-02-01T14:16:41;102153.28;;;20.12;36.34
46710;BME280;32442;51.514;-0.178;2023-02-01T14:19:17;102148.81;;;20.16;36.69
46710;BME280;32442;51.514;-0.178;2023-02-01T14:21:47;102146.28;;;20.20;36.22
46710;BME280;32442;51.514;-0.178;2023-02-01T14:24:20;102139.56;;;20.26;36.62
46710;BME280;32442;51.514;-0.178;2023-02-01T14:26:51;102149.16;;;20.30;36.39
46710;BME280;32442;51.514;-0.178;2023-02-01T14:34:20;102145.22;;;20.41;36.10
46710;BME280;32442;51.514;-0.178;2023-02-01T14:36:50;102150.28;;;20.44;36.14
46710;BME280;32442;51.514;-0.178;2023-02-01T14:41:48;102142.44;;;20.51;36.06
46710;BME280;32442;51.514;-0.178;2023-02-01T14:44:26;102140.75;;;20.55;35.99
46710;BME280;32442;51.514;-0.178;2023-02-01T14:49:24;102131.75;;;20.63;35.36
46710;BME280;32442;51.514;-0.178;2023-02-01T14:51:56;102134.28;;;20.65;35.85
46710;BME280;32442;51.514;-0.178;2023-02-01T14:54:24;102138.22;;;20.69;35.92
46710;BME280;32442;51.514;-0.178;2023-02-01T14:56:52;102140.47;;;20.72;35.88
46710;BME280;32442;51.514;-0.178;2023-02-01T14:59:21;102142.44;;;20.76;35.50
46710;BME280;32442;51.514;-0.178;2023-02-01T15:01:52;102140.19;;;20.78;35.72
46710;BME280;32442;51.514;-0.178;2023-02-01T15:04:20;102144.41;;;20.81;35.65
46710;BME280;32442;51.514;-0.178;2023-02-01T15:14:21;102146.66;;;20.89;34.89
46710;BME280;32442;51.514;-0.178;2023-02-01T15:16:48;102136.25;;;20.90;34.83
46710;BME280;32442;51.514;-0.178;2023-02-01T15:19:21;102146.38;;;20.91;35.23
46710;BME280;32442;51.514;-0.178;2023-02-01T15:21:50;102142.72;;;20.90;35.18
46710;BME280;32442;51.514;-0.178;2023-02-01T15:24:19;102151.72;;;20.92;35.00
46710;BME280;32442;51.514;-0.178;2023-02-01T15:26:47;102157.59;;;20.96;35.19
46710;BME280;32442;51.514;-0.178;2023-02-01T15:29:14;102150.88;;;20.97;34.90
46710;BME280;32442;51.514;-0.178;2023-02-01T15:31:43;102154.22;;;20.99;34.79
46710;BME280;32442;51.514;-0.178;2023-02-01T15:34:12;102150.28;;;21.00;34.88
46710;BME280;32442;51.514;-0.178;2023-02-01T15:36:40;102152.56;;;21.03;34.66
46710;BME280;32442;51.514;-0.178;2023-02-01T15:39:20;102142.97;;;21.04;34.55
46710;BME280;32442;51.514;-0.178;2023-02-01T15:41:51;102146.63;;;21.04;34.61
46710;BME280;32442;51.514;-0.178;2023-02-01T15:46:48;102148.59;;;21.09;34.61
46710;BME280;32442;51.514;-0.178;2023-02-01T15:51:44;102148.31;;;21.10;34.44
46710;BME280;32442;51.514;-0.178;2023-02-01T15:54:15;102136.81;;;21.12;34.17
46710;BME280;32442;51.514;-0.178;2023-02-01T15:59:20;102143.00;;;21.14;34.70
46710;BME280;32442;51.514;-0.178;2023-02-01T16:01:48;102155.09;;;21.14;34.42
46710;BME280;32442;51.514;-0.178;2023-02-01T16:04:17;102152.28;;;21.14;34.40
46710;BME280;32442;51.514;-0.178;2023-02-01T16:06:46;102164.38;;;21.15;34.71
46710;BME280;32442;51.514;-0.178;2023-02-01T16:09:15;102167.44;;;21.13;34.70
46710;BME280;32442;51.514;-0.178;2023-02-01T16:14:13;102175.88;;;21.13;34.59
46710;BME280;32442;51.514;-0.178;2023-02-01T16:16:40;102180.94;;;21.11;34.59
46710;BME280;32442;51.514;-0.178;2023-02-01T16:19:07;102189.63;;;21.10;34.98
46710;BME280;32442;51.514;-0.178;2023-02-01T16:21:34;102197.22;;;21.09;34.57
46710;BME280;32442;51.514;-0.178;2023-02-01T16:24:01;102194.97;;;21.11;34.73
46710;BME280;32442;51.514;-0.178;2023-02-01T16:26:32;102196.38;;;21.09;35.16